sensor_id;sensor_type;location;lat;lon;timestamp;P1;durP1;ratioP1;P2;durP2;ratioP2
21032;SDS011;10675;47.976;7.824;2023-04-25T00:01:21;3.10;;;1.77;;
21032;SDS011;10675;47.976;7.824;2023-04-25T00:03:47;1.60;;;1.50;;
21032;SDS011;10675;47.976;7.824;2023-04-25T00:06:13;6.03;;;1.63;;
21032;SDS011;10675;47.976;7.824;2023-04-25T00:08:38;2.07;;;1.40;;
21032;SDS011;10675;47.976;7.824;2023-04-25T00:11:04;2.47;;;1.63;;
21032;SDS011;10675;47.976;7.824;2023-04-25T00:13:30;1.97;;;1.40;;
21032;SDS011;10675;47.976;7.824;2023-04-25T00:15:55;1.80;;;1.20;;
21032;SDS011;10675;47.976;7.824;2023-04-25T00:18:21;2.60;;;1.80;;
21032;SDS011;10675;47.976;7.824;2023-04-25T00:20:47;2.77;;;2.00;;
21032;SDS011;10675;47.976;7.824;2023-04-25T00:23:16;1.90;;;1.80;;
21032;SDS011;10675;47.976;7.824;2023-04-25T00:25:45;3.00;;;1.97;;
21032;SDS011;10675;47.976;7.824;2023-04-25T00:28:12;4.50;;;1.60;;
21032;SDS011;10675;47.976;7.824;2023-04-25T00:30:38;3.90;;;2.13;;
21032;SDS011;10675;47.976;7.824;2023-04-25T00:33:04;1.93;;;1.73;;
21032;SDS011;10675;47.976;7.824;2023-04-25T00:35:30;2.80;;;1.80;;
21032;SDS011;10675;47.976;7.824;2023-04-25T00:37:55;4.77;;;1.80;;
21032;SDS011;10675;47.976;7.824;2023-04-25T00:40:21;2.40;;;1.80;;
21032;SDS011;10675;47.976;7.824;2023-04-25T00:42:47;5.37;;;1.90;;
21032;SDS011;10675;47.976;7.824;2023-04-25T00:45:13;1.60;;;1.47;;
21032;SDS011;10675;47.976;7.824;2023-04-25T00:47:40;3.50;;;2.27;;
21032;SDS011;10675;47.976;7.824;2023-04-25T00:50:06;2.53;;;1.60;;
21032;SDS011;10675;47.976;7.824;2023-04-25T00:52:33;4.30;;;2.10;;
21032;SDS011;10675;47.976;7.824;2023-04-25T00:54:59;2.83;;;1.83;;
21032;SDS011;10675;47.976;7.824;2023-04-25T00:57:25;6.37;;;1.93;;
21032;SDS011;10675;47.976;7.824;2023-04-25T00:59:51;3.33;;;1.77;;
21032;SDS011;10675;47.976;7.824;2023-04-25T01:02:17;2.53;;;2.00;;
21032;SDS011;10675;47.976;7.824;2023-04-25T01:04:44;3.43;;;2.20;;
21032;SDS011;10675;47.976;7.824;2023-04-25T01:07:09;4.27;;;1.90;;
21032;SDS011;10675;47.976;7.824;2023-04-25T01:09:35;2.87;;;1.80;;
21032;SDS011;10675;47.976;7.824;2023-04-25T01:12:01;2.27;;;1.90;;
21032;SDS011;10675;47.976;7.824;2023-04-25T01:14:27;2.33;;;1.97;;
21032;SDS011;10675;47.976;7.824;2023-04-25T01:16:54;9.70;;;2.30;;
21032;SDS011;10675;47.976;7.824;2023-04-25T01:19:19;5.37;;;1.93;;
21032;SDS011;10675;47.976;7.824;2023-04-25T01:21:45;2.53;;;1.80;;
21032;SDS011;10675;47.976;7.824;2023-04-25T01:24:11;4.80;;;2.17;;
21032;SDS011;10675;47.976;7.824;2023-04-25T01:26:37;3.70;;;1.97;;
21032;SDS011;10675;47.976;7.824;2023-04-25T01:29:04;2.33;;;2.00;;
21032;SDS011;10675;47.976;7.824;2023-04-25T01:31:31;3.20;;;1.97;;
21032;SDS011;10675;47.976;7.824;2023-04-25T01:33:57;4.87;;;1.90;;
21032;SDS011;10675;47.976;7.824;2023-04-25T01:36:23;1.93;;;1.67;;
21032;SDS011;10675;47.976;7.824;2023-04-25T01:38:49;4.50;;;1.90;;
21032;SDS011;10675;47.976;7.824;2023-04-25T01:41:15;4.00;;;2.07;;
21032;SDS011;10675;47.976;7.824;2023-04-25T01:43:42;4.67;;;2.03;;
21032;SDS011;10675;47.976;7.824;2023-04-25T01:46:08;2.57;;;1.87;;
21032;SDS011;10675;47.976;7.824;2023-04-25T01:48:35;3.83;;;2.30;;
21032;SDS011;10675;47.976;7.824;2023-04-25T01:51:01;3.50;;;1.93;;
21032;SDS011;10675;47.976;7.824;2023-04-25T01:53:26;1.83;;;1.63;;
21032;SDS011;10675;47.976;7.824;2023-04-25T01:55:52;3.17;;;1.80;;
21032;SDS011;10675;47.976;7.824;2023-04-25T01:58:17;2.37;;;2.00;;
21032;SDS011;10675;47.976;7.824;2023-04-25T02:00:43;3.30;;;1.77;;
21032;SDS011;10675;47.976;7.824;2023-04-25T02:03:09;2.30;;;1.70;;
21032;SDS011;10675;47.976;7.824;2023-04-25T02:05:38;1.77;;;1.60;;
21032;SDS011;10675;47.976;7.824;2023-04-25T02:08:05;4.23;;;1.67;;
21032;SDS011;10675;47.976;7.824;2023-04-25T02:10:32;1.60;;;1.50;;
21032;SDS011;10675;47.976;7.824;2023-04-25T02:12:58;1.73;;;1.63;;
21032;SDS011;10675;47.976;7.824;2023-04-25T02:15:24;3.00;;;1.60;;
21032;SDS011;10675;47.976;7.824;2023-04-25T02:17:50;5.03;;;2.17;;
21032;SDS011;10675;47.976;7.824;2023-04-25T02:20:17;2.30;;;1.90;;
21032;SDS011;10675;47.976;7.824;2023-04-25T02:22:45;3.03;;;1.77;;
21032;SDS011;10675;47.976;7.824;2023-04-25T02:25:10;1.60;;;1.47;;
21032;SDS011;10675;47.976;7.824;2023-04-25T02:27:36;2.03;;;1.80;;
21032;SDS011;10675;47.976;7.824;2023-04-25T02:30:02;2.90;;;1.77;;
21032;SDS011;10675;47.976;7.824;2023-04-25T02:32:29;1.57;;;1.27;;
21032;SDS011;10675;47.976;7.824;2023-04-25T02:34:55;3.23;;;1.60;;
21032;SDS011;10675;47.976;7.824;2023-04-25T02:37:23;2.73;;;2.03;;
21032;SDS011;10675;47.976;7.824;2023-04-25T02:39:49;2.67;;;1.80;;
21032;SDS011;10675;47.976;7.824;2023-04-25T02:42:14;1.80;;;1.60;;
21032;SDS011;10675;47.976;7.824;2023-04-25T02:44:40;4.60;;;1.60;;
21032;SDS011;10675;47.976;7.824;2023-04-25T02:47:06;4.67;;;1.57;;
21032;SDS011;10675;47.976;7.824;2023-04-25T02:49:31;3.00;;;1.70;;
21032;SDS011;10675;47.976;7.824;2023-04-25T02:51:57;3.03;;;1.30;;
21032;SDS011;10675;47.976;7.824;2023-04-25T02:54:22;2.93;;;1.63;;
21032;SDS011;10675;47.976;7.824;2023-04-25T02:56:48;3.50;;;1.83;;
21032;SDS011;10675;47.976;7.824;2023-04-25T02:59:13;1.50;;;1.40;;
21032;SDS011;10675;47.976;7.824;2023-04-25T03:01:39;1.90;;;1.80;;
21032;SDS011;10675;47.976;7.824;2023-04-25T03:04:04;1.70;;;1.60;;
21032;SDS011;10675;47.976;7.824;2023-04-25T03:06:30;2.20;;;1.80;;
21032;SDS011;10675;47.976;7.824;2023-04-25T03:08:55;5.23;;;1.90;;
21032;SDS011;10675;47.976;7.824;2023-04-25T03:11:21;3.37;;;1.73;;
21032;SDS011;10675;47.976;7.824;2023-04-25T03:13:46;3.33;;;1.70;;
21032;SDS011;10675;47.976;7.824;2023-04-25T03:16:12;2.90;;;1.70;;
21032;SDS011;10675;47.976;7.824;2023-04-25T03:18:37;3.03;;;1.50;;
21032;SDS011;10675;47.976;7.824;2023-04-25T03:21:03;1.60;;;1.50;;
21032;SDS011;10675;47.976;7.824;2023-04-25T03:23:29;2.73;;;1.80;;
21032;SDS011;10675;47.976;7.824;2023-04-25T03:25:55;5.03;;;1.83;;
21032;SDS011;10675;47.976;7.824;2023-04-25T03:28:20;7.67;;;1.80;;
21032;SDS011;10675;47.976;7.824;2023-04-25T03:30:46;3.63;;;1.50;;
21032;SDS011;10675;47.976;7.824;2023-04-25T03:33:12;3.77;;;1.90;;
21032;SDS011;10675;47.976;7.824;2023-04-25T03:35:37;5.40;;;1.70;;
21032;SDS011;10675;47.976;7.824;2023-04-25T03:38:03;2.10;;;1.90;;
21032;SDS011;10675;47.976;7.824;2023-04-25T03:40:28;3.90;;;1.93;;
21032;SDS011;10675;47.976;7.824;2023-04-25T03:42:54;1.57;;;1.47;;
21032;SDS011;10675;47.976;7.824;2023-04-25T03:45:19;3.60;;;1.90;;
21032;SDS011;10675;47.976;7.824;2023-04-25T03:47:45;1.70;;;1.60;;
21032;SDS011;10675;47.976;7.824;2023-04-25T03:50:10;3.80;;;1.73;;
21032;SDS011;10675;47.976;7.824;2023-04-25T03:52:36;4.57;;;1.77;;
21032;SDS011;10675;47.976;7.824;2023-04-25T03:55:01;2.43;;;1.83;;
21032;SDS011;10675;47.976;7.824;2023-04-25T03:57:27;2.43;;;1.80;;
21032;SDS011;10675;47.976;7.824;2023-04-25T03:59:53;5.17;;;2.20;;
21032;SDS011;10675;47.976;7.824;2023-04-25T04:02:18;4.03;;;1.90;;
21032;SDS011;10675;47.976;7.824;2023-04-25T04:04:44;2.13;;;1.67;;
21032;SDS011;10675;47.976;7.824;2023-04-25T04:07:09;1.87;;;1.70;;
21032;SDS011;10675;47.976;7.824;2023-04-25T04:09:35;2.47;;;1.57;;
21032;SDS011;10675;47.976;7.824;2023-04-25T04:12:01;3.33;;;1.83;;
21032;SDS011;10675;47.976;7.824;2023-04-25T04:14:26;1.83;;;1.70;;
21032;SDS011;10675;47.976;7.824;2023-04-25T04:16:52;2.60;;;1.70;;
21032;SDS011;10675;47.976;7.824;2023-04-25T04:19:18;4.67;;;2.30;;
21032;SDS011;10675;47.976;7.824;2023-04-25T04:21:43;3.17;;;1.90;;
21032;SDS011;10675;47.976;7.824;2023-04-25T04:24:09;4.13;;;2.20;;
21032;SDS011;10675;47.976;7.824;2023-04-25T04:26:35;2.73;;;2.00;;
21032;SDS011;10675;47.976;7.824;2023-04-25T04:29:02;4.17;;;2.20;;
21032;SDS011;10675;47.976;7.824;2023-04-25T04:31:27;2.80;;;2.10;;
21032;SDS011;10675;47.976;7.824;2023-04-25T04:33:53;3.00;;;2.10;;
21032;SDS011;10675;47.976;7.824;2023-04-25T04:36:18;5.53;;;2.37;;
21032;SDS011;10675;47.976;7.824;2023-04-25T04:38:48;5.17;;;1.60;;
21032;SDS011;10675;47.976;7.824;2023-04-25T04:41:14;4.80;;;1.60;;
21032;SDS011;10675;47.976;7.824;2023-04-25T04:43:39;2.30;;;1.90;;
21032;SDS011;10675;47.976;7.824;2023-04-25T04:46:05;2.77;;;2.13;;
21032;SDS011;10675;47.976;7.824;2023-04-25T04:48:31;4.80;;;2.13;;
21032;SDS011;10675;47.976;7.824;2023-04-25T04:51:00;2.57;;;1.63;;
21032;SDS011;10675;47.976;7.824;2023-04-25T04:53:26;1.90;;;1.70;;
21032;SDS011;10675;47.976;7.824;2023-04-25T04:55:52;4.03;;;1.87;;
21032;SDS011;10675;47.976;7.824;2023-04-25T04:58:17;3.93;;;2.03;;
21032;SDS011;10675;47.976;7.824;2023-04-25T05:00:43;4.87;;;2.03;;
21032;SDS011;10675;47.976;7.824;2023-04-25T05:03:09;2.53;;;1.80;;
21032;SDS011;10675;47.976;7.824;2023-04-25T05:05:36;1.70;;;1.60;;
21032;SDS011;10675;47.976;7.824;2023-04-25T05:08:04;4.67;;;1.73;;
21032;SDS011;10675;47.976;7.824;2023-04-25T05:10:30;5.43;;;1.67;;
21032;SDS011;10675;47.976;7.824;2023-04-25T05:12:56;6.00;;;2.33;;
21032;SDS011;10675;47.976;7.824;2023-04-25T05:15:21;5.63;;;1.90;;
21032;SDS011;10675;47.976;7.824;2023-04-25T05:17:47;2.10;;;1.67;;
21032;SDS011;10675;47.976;7.824;2023-04-25T05:20:12;1.70;;;1.60;;
21032;SDS011;10675;47.976;7.824;2023-04-25T05:22:39;1.80;;;1.37;;
21032;SDS011;10675;47.976;7.824;2023-04-25T05:25:08;2.10;;;1.90;;
21032;SDS011;10675;47.976;7.824;2023-04-25T05:27:34;3.70;;;1.60;;
21032;SDS011;10675;47.976;7.824;2023-04-25T05:30:00;3.70;;;1.60;;
21032;SDS011;10675;47.976;7.824;2023-04-25T05:32:25;1.60;;;1.50;;
21032;SDS011;10675;47.976;7.824;2023-04-25T05:34:51;1.90;;;1.43;;
21032;SDS011;10675;47.976;7.824;2023-04-25T05:37:17;1.30;;;1.00;;
21032;SDS011;10675;47.976;7.824;2023-04-25T05:39:42;1.00;;;0.90;;
21032;SDS011;10675;47.976;7.824;2023-04-25T05:42:08;1.13;;;0.70;;
21032;SDS011;10675;47.976;7.824;2023-04-25T05:44:33;0.60;;;0.60;;
21032;SDS011;10675;47.976;7.824;2023-04-25T05:46:59;0.50;;;0.50;;
21032;SDS011;10675;47.976;7.824;2023-04-25T05:49:25;3.73;;;1.13;;
21032;SDS011;10675;47.976;7.824;2023-04-25T05:51:50;1.03;;;0.87;;
21032;SDS011;10675;47.976;7.824;2023-04-25T05:54:16;1.93;;;0.63;;
21032;SDS011;10675;47.976;7.824;2023-04-25T05:56:41;0.60;;;0.60;;
21032;SDS011;10675;47.976;7.824;2023-04-25T05:59:07;1.90;;;0.70;;
21032;SDS011;10675;47.976;7.824;2023-04-25T06:01:32;0.53;;;0.53;;
21032;SDS011;10675;47.976;7.824;2023-04-25T06:03:57;0.30;;;0.30;;
21032;SDS011;10675;47.976;7.824;2023-04-25T06:06:23;0.40;;;0.40;;
21032;SDS011;10675;47.976;7.824;2023-04-25T06:08:49;0.83;;;0.40;;
21032;SDS011;10675;47.976;7.824;2023-04-25T06:11:15;0.30;;;0.30;;
21032;SDS011;10675;47.976;7.824;2023-04-25T06:13:40;0.40;;;0.40;;
21032;SDS011;10675;47.976;7.824;2023-04-25T06:16:06;0.40;;;0.40;;
21032;SDS011;10675;47.976;7.824;2023-04-25T06:18:32;0.83;;;0.50;;
21032;SDS011;10675;47.976;7.824;2023-04-25T06:20:58;0.70;;;0.40;;
21032;SDS011;10675;47.976;7.824;2023-04-25T06:23:23;0.50;;;0.50;;
21032;SDS011;10675;47.976;7.824;2023-04-25T06:25:49;2.17;;;0.40;;
21032;SDS011;10675;47.976;7.824;2023-04-25T06:28:14;0.40;;;0.40;;
21032;SDS011;10675;47.976;7.824;2023-04-25T06:30:40;1.43;;;0.50;;
21032;SDS011;10675;47.976;7.824;2023-04-25T06:33:05;0.43;;;0.43;;
21032;SDS011;10675;47.976;7.824;2023-04-25T06:35:31;0.40;;;0.40;;
21032;SDS011;10675;47.976;7.824;2023-04-25T06:37:56;0.77;;;0.77;;
21032;SDS011;10675;47.976;7.824;2023-04-25T06:40:22;0.97;;;0.70;;
21032;SDS011;10675;47.976;7.824;2023-04-25T06:42:47;1.10;;;0.70;;
21032;SDS011;10675;47.976;7.824;2023-04-25T06:45:13;0.53;;;0.53;;
21032;SDS011;10675;47.976;7.824;2023-04-25T06:47:38;0.97;;;0.87;;
21032;SDS011;10675;47.976;7.824;2023-04-25T06:50:04;0.90;;;0.90;;
21032;SDS011;10675;47.976;7.824;2023-04-25T06:52:30;0.80;;;0.80;;
21032;SDS011;10675;47.976;7.824;2023-04-25T06:54:56;0.70;;;0.70;;
21032;SDS011;10675;47.976;7.824;2023-04-25T06:57:21;0.90;;;0.70;;
21032;SDS011;10675;47.976;7.824;2023-04-25T06:59:47;0.60;;;0.60;;
21032;SDS011;10675;47.976;7.824;2023-04-25T07:02:12;0.87;;;0.87;;
21032;SDS011;10675;47.976;7.824;2023-04-25T07:04:38;0.70;;;0.60;;
21032;SDS011;10675;47.976;7.824;2023-04-25T07:07:03;0.83;;;0.80;;
21032;SDS011;10675;47.976;7.824;2023-04-25T07:09:29;0.80;;;0.80;;
21032;SDS011;10675;47.976;7.824;2023-04-25T07:11:55;1.13;;;1.00;;
21032;SDS011;10675;47.976;7.824;2023-04-25T07:14:21;0.97;;;0.93;;
21032;SDS011;10675;47.976;7.824;2023-04-25T07:16:47;0.87;;;0.87;;
21032;SDS011;10675;47.976;7.824;2023-04-25T07:19:12;1.00;;;0.90;;
21032;SDS011;10675;47.976;7.824;2023-04-25T07:21:38;1.33;;;1.10;;
21032;SDS011;10675;47.976;7.824;2023-04-25T07:24:03;2.53;;;1.10;;
21032;SDS011;10675;47.976;7.824;2023-04-25T07:26:29;1.00;;;0.87;;
21032;SDS011;10675;47.976;7.824;2023-04-25T07:28:55;1.57;;;1.43;;
21032;SDS011;10675;47.976;7.824;2023-04-25T07:31:21;1.20;;;1.13;;
21032;SDS011;10675;47.976;7.824;2023-04-25T07:33:47;4.93;;;1.40;;
21032;SDS011;10675;47.976;7.824;2023-04-25T07:36:12;1.27;;;1.17;;
21032;SDS011;10675;47.976;7.824;2023-04-25T07:38:40;1.23;;;1.13;;
21032;SDS011;10675;47.976;7.824;2023-04-25T07:41:05;3.20;;;1.00;;
21032;SDS011;10675;47.976;7.824;2023-04-25T07:43:31;1.20;;;1.10;;
21032;SDS011;10675;47.976;7.824;2023-04-25T07:45:57;2.67;;;1.27;;
21032;SDS011;10675;47.976;7.824;2023-04-25T07:48:22;1.37;;;1.17;;
21032;SDS011;10675;47.976;7.824;2023-04-25T07:50:48;3.07;;;1.30;;
21032;SDS011;10675;47.976;7.824;2023-04-25T07:53:14;1.20;;;1.10;;
21032;SDS011;10675;47.976;7.824;2023-04-25T07:55:39;1.70;;;1.27;;
21032;SDS011;10675;47.976;7.824;2023-04-25T07:58:05;1.37;;;1.20;;
21032;SDS011;10675;47.976;7.824;2023-04-25T08:00:34;2.67;;;1.63;;
21032;SDS011;10675;47.976;7.824;2023-04-25T08:03:01;1.77;;;1.50;;
21032;SDS011;10675;47.976;7.824;2023-04-25T08:05:27;2.70;;;1.50;;
21032;SDS011;10675;47.976;7.824;2023-04-25T08:07:53;1.67;;;1.40;;
21032;SDS011;10675;47.976;7.824;2023-04-25T08:10:18;1.53;;;1.40;;
21032;SDS011;10675;47.976;7.824;2023-04-25T08:12:44;3.40;;;1.70;;
21032;SDS011;10675;47.976;7.824;2023-04-25T08:15:09;1.40;;;1.30;;
21032;SDS011;10675;47.976;7.824;2023-04-25T08:17:35;1.30;;;1.20;;
21032;SDS011;10675;47.976;7.824;2023-04-25T08:20:01;1.40;;;1.30;;
21032;SDS011;10675;47.976;7.824;2023-04-25T08:22:30;1.30;;;1.20;;
21032;SDS011;10675;47.976;7.824;2023-04-25T08:24:55;1.53;;;1.40;;
21032;SDS011;10675;47.976;7.824;2023-04-25T08:27:21;1.37;;;1.27;;
21032;SDS011;10675;47.976;7.824;2023-04-25T08:29:46;1.40;;;1.30;;
21032;SDS011;10675;47.976;7.824;2023-04-25T08:32:12;2.87;;;1.50;;
21032;SDS011;10675;47.976;7.824;2023-04-25T08:34:37;1.43;;;1.33;;
21032;SDS011;10675;47.976;7.824;2023-04-25T08:37:07;1.30;;;1.20;;
21032;SDS011;10675;47.976;7.824;2023-04-25T08:39:33;1.50;;;1.40;;
21032;SDS011;10675;47.976;7.824;2023-04-25T08:41:58;1.47;;;1.20;;
21032;SDS011;10675;47.976;7.824;2023-04-25T08:44:26;1.50;;;1.33;;
21032;SDS011;10675;47.976;7.824;2023-04-25T08:46:52;1.30;;;1.20;;
21032;SDS011;10675;47.976;7.824;2023-04-25T08:49:20;2.43;;;1.40;;
21032;SDS011;10675;47.976;7.824;2023-04-25T08:51:46;1.40;;;1.30;;
21032;SDS011;10675;47.976;7.824;2023-04-25T08:54:12;1.23;;;1.10;;
21032;SDS011;10675;47.976;7.824;2023-04-25T08:56:43;1.23;;;1.13;;
21032;SDS011;10675;47.976;7.824;2023-04-25T08:59:11;2.07;;;1.20;;
21032;SDS011;10675;47.976;7.824;2023-04-25T09:01:37;1.20;;;1.03;;
21032;SDS011;10675;47.976;7.824;2023-04-25T09:04:03;1.10;;;1.00;;
21032;SDS011;10675;47.976;7.824;2023-04-25T09:06:29;1.10;;;1.03;;
21032;SDS011;10675;47.976;7.824;2023-04-25T09:09:01;1.13;;;0.93;;
21032;SDS011;10675;47.976;7.824;2023-04-25T09:11:31;1.10;;;1.00;;
21032;SDS011;10675;47.976;7.824;2023-04-25T09:19:25;1.40;;;1.30;;
21032;SDS011;10675;47.976;7.824;2023-04-25T09:21:56;2.67;;;1.23;;
21032;SDS011;10675;47.976;7.824;2023-04-25T09:24:33;2.07;;;1.20;;
21032;SDS011;10675;47.976;7.824;2023-04-25T09:27:11;1.20;;;1.00;;
21032;SDS011;10675;47.976;7.824;2023-04-25T09:29:39;1.40;;;1.30;;
21032;SDS011;10675;47.976;7.824;2023-04-25T09:32:24;1.43;;;1.20;;
21032;SDS011;10675;47.976;7.824;2023-04-25T09:34:51;0.87;;;0.87;;
21032;SDS011;10675;47.976;7.824;2023-04-25T09:37:27;1.23;;;1.13;;
21032;SDS011;10675;47.976;7.824;2023-04-25T09:39:54;1.70;;;1.60;;
21032;SDS011;10675;47.976;7.824;2023-04-25T09:42:22;1.20;;;1.13;;
21032;SDS011;10675;47.976;7.824;2023-04-25T09:44:49;1.60;;;1.50;;
21032;SDS011;10675;47.976;7.824;2023-04-25T09:47:17;1.40;;;1.30;;
21032;SDS011;10675;47.976;7.824;2023-04-25T09:49:43;1.17;;;1.07;;
21032;SDS011;10675;47.976;7.824;2023-04-25T09:52:18;2.93;;;1.13;;
21032;SDS011;10675;47.976;7.824;2023-04-25T09:54:45;1.23;;;1.20;;
21032;SDS011;10675;47.976;7.824;2023-04-25T09:59:45;0.77;;;0.77;;
21032;SDS011;10675;47.976;7.824;2023-04-25T10:02:12;0.90;;;0.90;;
21032;SDS011;10675;47.976;7.824;2023-04-25T10:04:40;0.87;;;0.87;;
21032;SDS011;10675;47.976;7.824;2023-04-25T10:07:07;1.30;;;1.20;;
21032;SDS011;10675;47.976;7.824;2023-04-25T10:09:33;1.70;;;1.00;;
21032;SDS011;10675;47.976;7.824;2023-04-25T10:12:01;0.80;;;0.80;;
21032;SDS011;10675;47.976;7.824;2023-04-25T10:14:29;0.80;;;0.80;;
21032;SDS011;10675;47.976;7.824;2023-04-25T10:16:55;0.90;;;0.90;;
21032;SDS011;10675;47.976;7.824;2023-04-25T10:19:23;0.87;;;0.87;;
21032;SDS011;10675;47.976;7.824;2023-04-25T10:21:50;1.00;;;1.00;;
21032;SDS011;10675;47.976;7.824;2023-04-25T10:24:22;1.10;;;1.00;;
21032;SDS011;10675;47.976;7.824;2023-04-25T10:26:48;2.03;;;1.10;;
21032;SDS011;10675;47.976;7.824;2023-04-25T10:29:21;1.07;;;1.07;;
21032;SDS011;10675;47.976;7.824;2023-04-25T10:31:48;0.80;;;0.80;;
21032;SDS011;10675;47.976;7.824;2023-04-25T10:34:15;1.30;;;1.20;;
21032;SDS011;10675;47.976;7.824;2023-04-25T10:36:41;1.20;;;1.10;;
21032;SDS011;10675;47.976;7.824;2023-04-25T10:39:07;1.70;;;1.00;;
21032;SDS011;10675;47.976;7.824;2023-04-25T10:41:47;2.03;;;1.10;;
21032;SDS011;10675;47.976;7.824;2023-04-25T10:44:16;1.33;;;1.00;;
21032;SDS011;10675;47.976;7.824;2023-04-25T10:46:42;1.43;;;1.33;;
21032;SDS011;10675;47.976;7.824;2023-04-25T10:49:09;1.63;;;1.20;;
21032;SDS011;10675;47.976;7.824;2023-04-25T10:51:36;2.37;;;1.50;;
21032;SDS011;10675;47.976;7.824;2023-04-25T10:56:29;1.23;;;1.20;;
21032;SDS011;10675;47.976;7.824;2023-04-25T10:59:07;2.80;;;1.27;;
21032;SDS011;10675;47.976;7.824;2023-04-25T11:01:38;1.37;;;1.27;;
21032;SDS011;10675;47.976;7.824;2023-04-25T11:04:05;3.70;;;1.70;;
21032;SDS011;10675;47.976;7.824;2023-04-25T11:06:35;1.70;;;1.60;;
21032;SDS011;10675;47.976;7.824;2023-04-25T11:09:02;2.27;;;1.37;;
21032;SDS011;10675;47.976;7.824;2023-04-25T11:11:36;1.70;;;1.60;;
21032;SDS011;10675;47.976;7.824;2023-04-25T11:14:01;4.13;;;1.33;;
21032;SDS011;10675;47.976;7.824;2023-04-25T11:16:27;1.63;;;1.50;;
21032;SDS011;10675;47.976;7.824;2023-04-25T11:18:53;2.23;;;1.80;;
21032;SDS011;10675;47.976;7.824;2023-04-25T11:21:18;1.53;;;1.43;;
21032;SDS011;10675;47.976;7.824;2023-04-25T11:23:46;1.73;;;1.50;;
21032;SDS011;10675;47.976;7.824;2023-04-25T11:26:12;1.70;;;1.60;;
21032;SDS011;10675;47.976;7.824;2023-04-25T11:28:38;2.30;;;1.50;;
21032;SDS011;10675;47.976;7.824;2023-04-25T11:31:04;2.20;;;1.20;;
21032;SDS011;10675;47.976;7.824;2023-04-25T11:33:30;2.53;;;1.40;;
21032;SDS011;10675;47.976;7.824;2023-04-25T11:35:55;1.63;;;1.50;;
21032;SDS011;10675;47.976;7.824;2023-04-25T11:38:22;2.23;;;1.60;;
21032;SDS011;10675;47.976;7.824;2023-04-25T11:40:49;3.37;;;1.57;;
21032;SDS011;10675;47.976;7.824;2023-04-25T11:43:16;1.40;;;1.30;;
21032;SDS011;10675;47.976;7.824;2023-04-25T11:45:45;1.40;;;1.20;;
21032;SDS011;10675;47.976;7.824;2023-04-25T11:48:12;1.73;;;1.50;;
21032;SDS011;10675;47.976;7.824;2023-04-25T11:50:38;1.83;;;1.40;;
21032;SDS011;10675;47.976;7.824;2023-04-25T11:53:05;1.47;;;1.33;;
21032;SDS011;10675;47.976;7.824;2023-04-25T11:55:31;1.70;;;1.60;;
21032;SDS011;10675;47.976;7.824;2023-04-25T11:57:58;1.73;;;1.63;;
21032;SDS011;10675;47.976;7.824;2023-04-25T12:00:25;2.70;;;1.50;;
21032;SDS011;10675;47.976;7.824;2023-04-25T12:02:55;1.60;;;1.50;;
21032;SDS011;10675;47.976;7.824;2023-04-25T12:05:29;4.20;;;1.30;;
21032;SDS011;10675;47.976;7.824;2023-04-25T12:07:55;2.37;;;1.43;;
21032;SDS011;10675;47.976;7.824;2023-04-25T12:10:21;1.17;;;1.17;;
21032;SDS011;10675;47.976;7.824;2023-04-25T12:12:49;1.37;;;1.27;;
21032;SDS011;10675;47.976;7.824;2023-04-25T12:15:18;1.97;;;1.30;;
21032;SDS011;10675;47.976;7.824;2023-04-25T12:17:49;1.40;;;1.30;;
21032;SDS011;10675;47.976;7.824;2023-04-25T12:20:17;1.30;;;1.20;;
21032;SDS011;10675;47.976;7.824;2023-04-25T12:22:49;1.97;;;1.40;;
21032;SDS011;10675;47.976;7.824;2023-04-25T12:30:55;0.80;;;0.80;;
21032;SDS011;10675;47.976;7.824;2023-04-25T12:33:28;1.03;;;0.70;;
21032;SDS011;10675;47.976;7.824;2023-04-25T12:35:58;0.93;;;0.70;;
21032;SDS011;10675;47.976;7.824;2023-04-25T12:40:52;1.00;;;0.87;;
21032;SDS011;10675;47.976;7.824;2023-04-25T12:43:18;1.03;;;0.90;;
21032;SDS011;10675;47.976;7.824;2023-04-25T12:45:44;1.07;;;0.87;;
21032;SDS011;10675;47.976;7.824;2023-04-25T12:48:12;1.60;;;1.20;;
21032;SDS011;10675;47.976;7.824;2023-04-25T12:50:37;0.90;;;0.90;;
21032;SDS011;10675;47.976;7.824;2023-04-25T12:53:03;1.60;;;1.10;;
21032;SDS011;10675;47.976;7.824;2023-04-25T12:55:29;1.00;;;1.00;;
21032;SDS011;10675;47.976;7.824;2023-04-25T12:57:54;1.03;;;0.90;;
21032;SDS011;10675;47.976;7.824;2023-04-25T13:00:20;1.27;;;0.90;;
21032;SDS011;10675;47.976;7.824;2023-04-25T13:02:45;2.47;;;0.97;;
21032;SDS011;10675;47.976;7.824;2023-04-25T13:05:11;0.90;;;0.90;;
21032;SDS011;10675;47.976;7.824;2023-04-25T13:07:37;0.63;;;0.63;;
21032;SDS011;10675;47.976;7.824;2023-04-25T13:10:03;1.60;;;0.97;;
21032;SDS011;10675;47.976;7.824;2023-04-25T13:12:30;1.23;;;1.00;;
21032;SDS011;10675;47.976;7.824;2023-04-25T13:14:56;1.07;;;1.07;;
21032;SDS011;10675;47.976;7.824;2023-04-25T13:17:22;2.07;;;1.03;;
21032;SDS011;10675;47.976;7.824;2023-04-25T13:19:47;1.33;;;1.10;;
21032;SDS011;10675;47.976;7.824;2023-04-25T13:22:13;2.10;;;1.10;;
21032;SDS011;10675;47.976;7.824;2023-04-25T13:24:40;1.30;;;1.20;;
21032;SDS011;10675;47.976;7.824;2023-04-25T13:27:05;2.27;;;0.97;;
21032;SDS011;10675;47.976;7.824;2023-04-25T13:29:31;1.20;;;0.90;;
21032;SDS011;10675;47.976;7.824;2023-04-25T13:31:59;1.47;;;1.13;;
21032;SDS011;10675;47.976;7.824;2023-04-25T13:34:25;1.03;;;1.00;;
21032;SDS011;10675;47.976;7.824;2023-04-25T13:36:51;1.07;;;0.97;;
21032;SDS011;10675;47.976;7.824;2023-04-25T13:39:16;0.93;;;0.90;;
21032;SDS011;10675;47.976;7.824;2023-04-25T13:41:42;0.60;;;0.60;;
21032;SDS011;10675;47.976;7.824;2023-04-25T13:44:07;0.80;;;0.80;;
21032;SDS011;10675;47.976;7.824;2023-04-25T13:46:33;0.70;;;0.70;;
21032;SDS011;10675;47.976;7.824;2023-04-25T13:48:58;2.53;;;0.70;;
21032;SDS011;10675;47.976;7.824;2023-04-25T13:51:24;0.70;;;0.70;;
21032;SDS011;10675;47.976;7.824;2023-04-25T13:53:51;0.67;;;0.67;;
21032;SDS011;10675;47.976;7.824;2023-04-25T13:56:16;0.90;;;0.90;;
21032;SDS011;10675;47.976;7.824;2023-04-25T13:58:44;0.77;;;0.77;;
21032;SDS011;10675;47.976;7.824;2023-04-25T14:01:10;0.53;;;0.53;;
21032;SDS011;10675;47.976;7.824;2023-04-25T14:03:36;0.60;;;0.60;;
21032;SDS011;10675;47.976;7.824;2023-04-25T14:06:01;1.97;;;0.70;;
21032;SDS011;10675;47.976;7.824;2023-04-25T14:08:27;0.80;;;0.80;;
21032;SDS011;10675;47.976;7.824;2023-04-25T14:10:53;0.60;;;0.60;;
21032;SDS011;10675;47.976;7.824;2023-04-25T14:13:19;1.80;;;0.70;;
21032;SDS011;10675;47.976;7.824;2023-04-25T14:15:44;0.87;;;0.70;;
21032;SDS011;10675;47.976;7.824;2023-04-25T14:18:10;0.70;;;0.70;;
21032;SDS011;10675;47.976;7.824;2023-04-25T14:20:35;0.60;;;0.60;;
21032;SDS011;10675;47.976;7.824;2023-04-25T14:23:01;0.97;;;0.70;;
21032;SDS011;10675;47.976;7.824;2023-04-25T14:27:55;1.23;;;0.93;;
21032;SDS011;10675;47.976;7.824;2023-04-25T14:30:21;2.13;;;0.90;;
21032;SDS011;10675;47.976;7.824;2023-04-25T14:32:47;0.80;;;0.67;;
21032;SDS011;10675;47.976;7.824;2023-04-25T14:35:14;0.83;;;0.80;;
21032;SDS011;10675;47.976;7.824;2023-04-25T14:37:39;0.80;;;0.80;;
21032;SDS011;10675;47.976;7.824;2023-04-25T14:40:05;0.93;;;0.93;;
21032;SDS011;10675;47.976;7.824;2023-04-25T14:42:35;0.93;;;0.93;;
21032;SDS011;10675;47.976;7.824;2023-04-25T14:45:02;0.80;;;0.80;;
21032;SDS011;10675;47.976;7.824;2023-04-25T14:47:32;4.30;;;1.10;;
21032;SDS011;10675;47.976;7.824;2023-04-25T14:49:57;0.80;;;0.80;;
21032;SDS011;10675;47.976;7.824;2023-04-25T14:52:23;1.60;;;0.83;;
21032;SDS011;10675;47.976;7.824;2023-04-25T14:54:50;0.90;;;0.90;;
21032;SDS011;10675;47.976;7.824;2023-04-25T14:57:15;0.80;;;0.80;;
21032;SDS011;10675;47.976;7.824;2023-04-25T14:59:41;0.97;;;0.87;;
21032;SDS011;10675;47.976;7.824;2023-04-25T15:02:07;1.03;;;1.00;;
21032;SDS011;10675;47.976;7.824;2023-04-25T15:04:32;0.90;;;0.80;;